sensor_id;sensor_type;location;lat;lon;timestamp;temperature;humidity
26505;DHT22;19493;48.042;7.584;2023-12-04T00:00:37;-3.10;99.90
26505;DHT22;19493;48.042;7.584;2023-12-04T00:03:02;-3.10;99.90
26505;DHT22;19493;48.042;7.584;2023-12-04T00:05:29;-3.20;99.90
26505;DHT22;19493;48.042;7.584;2023-12-04T00:07:55;-3.30;99.90
26505;DHT22;19493;48.042;7.584;2023-12-04T00:10:21;-3.30;99.90
26505;DHT22;19493;48.042;7.584;2023-12-04T00:12:47;-3.40;99.90
26505;DHT22;19493;48.042;7.584;2023-12-04T00:15:12;-3.50;99.90
26505;DHT22;19493;48.042;7.584;2023-12-04T00:17:38;-3.50;99.90
26505;DHT22;19493;48.042;7.584;2023-12-04T00:20:07;-3.50;99.90
26505;DHT22;19493;48.042;7.584;2023-12-04T00:22:34;-3.50;99.90
26505;DHT22;19493;48.042;7.584;2023-12-04T00:24:59;-3.50;99.90
26505;DHT22;19493;48.042;7.584;2023-12-04T00:27:25;-3.60;99.90
26505;DHT22;19493;48.042;7.584;2023-12-04T00:29:53;-3.60;99.90
26505;DHT22;19493;48.042;7.584;2023-12-04T00:32:18;-3.60;99.90
26505;DHT22;19493;48.042;7.584;2023-12-04T00:34:44;-3.60;99.90
26505;DHT22;19493;48.042;7.584;2023-12-04T00:37:09;-3.60;99.90
26505;DHT22;19493;48.042;7.584;2023-12-04T00:39:35;-3.60;99.90
26505;DHT22;19493;48.042;7.584;2023-12-04T00:42:01;-3.60;99.90
26505;DHT22;19493;48.042;7.584;2023-12-04T00:44:26;-3.60;99.90
26505;DHT22;19493;48.042;7.584;2023-12-04T00:46:52;-3.70;99.90
26505;DHT22;19493;48.042;7.584;2023-12-04T00:49:18;-3.70;99.90
26505;DHT22;19493;48.042;7.584;2023-12-04T00:51:43;-3.70;99.90
26505;DHT22;19493;48.042;7.584;2023-12-04T00:54:10;-3.70;99.90
26505;DHT22;19493;48.042;7.584;2023-12-04T00:56:38;-3.70;99.90
26505;DHT22;19493;48.042;7.584;2023-12-04T00:59:04;-3.70;99.90
26505;DHT22;19493;48.042;7.584;2023-12-04T01:01:32;-3.80;99.90
26505;DHT22;19493;48.042;7.584;2023-12-04T01:03:58;-3.70;99.90
26505;DHT22;19493;48.042;7.584;2023-12-04T01:06:25;-3.70;99.90
26505;DHT22;19493;48.042;7.584;2023-12-04T01:08:52;-3.70;99.90
26505;DHT22;19493;48.042;7.584;2023-12-04T01:11:18;-3.70;99.90
26505;DHT22;19493;48.042;7.584;2023-12-04T01:13:44;-3.70;99.90
26505;DHT22;19493;48.042;7.584;2023-12-04T01:16:10;-3.70;99.90
26505;DHT22;19493;48.042;7.584;2023-12-04T01:18:36;-3.70;99.90
26505;DHT22;19493;48.042;7.584;2023-12-04T01:21:01;-3.70;99.90
26505;DHT22;19493;48.042;7.584;2023-12-04T01:23:27;-3.70;99.90
26505;DHT22;19493;48.042;7.584;2023-12-04T01:25:53;-3.70;99.90
26505;DHT22;19493;48.042;7.584;2023-12-04T01:28:19;-3.70;99.90
26505;DHT22;19493;48.042;7.584;2023-12-04T01:30:44;-3.80;99.90
26505;DHT22;19493;48.042;7.584;2023-12-04T01:33:10;-3.80;99.90
26505;DHT22;19493;48.042;7.584;2023-12-04T01:35:36;-3.80;99.90
26505;DHT22;19493;48.042;7.584;2023-12-04T01:38:01;-3.80;99.90
26505;DHT22;19493;48.042;7.584;2023-12-04T01:40:27;-3.80;99.90
26505;DHT22;19493;48.042;7.584;2023-12-04T01:42:53;-3.80;99.90
26505;DHT22;19493;48.042;7.584;2023-12-04T01:45:18;-3.80;99.90
26505;DHT22;19493;48.042;7.584;2023-12-04T01:47:45;-3.70;99.90
26505;DHT22;19493;48.042;7.584;2023-12-04T01:50:12;-3.70;99.90
26505;DHT22;19493;48.042;7.584;2023-12-04T01:52:38;-3.60;99.90
26505;DHT22;19493;48.042;7.584;2023-12-04T01:55:06;-3.50;99.90
26505;DHT22;19493;48.042;7.584;2023-12-04T01:57:34;-3.50;99.90
26505;DHT22;19493;48.042;7.584;2023-12-04T02:00:00;-3.30;99.90
26505;DHT22;19493;48.042;7.584;2023-12-04T02:02:27;-3.10;99.90
26505;DHT22;19493;48.042;7.584;2023-12-04T02:04:57;-3.10;99.90
26505;DHT22;19493;48.042;7.584;2023-12-04T02:07:23;-3.00;99.90
26505;DHT22;19493;48.042;7.584;2023-12-04T02:09:49;-2.90;99.90
26505;DHT22;19493;48.042;7.584;2023-12-04T02:12:16;-2.90;99.90
26505;DHT22;19493;48.042;7.584;2023-12-04T02:14:42;-2.80;99.90
26505;DHT22;19493;48.042;7.584;2023-12-04T02:17:08;-2.80;99.90
26505;DHT22;19493;48.042;7.584;2023-12-04T02:19:35;-2.70;99.90
26505;DHT22;19493;48.042;7.584;2023-12-04T02:22:01;-2.70;99.90
26505;DHT22;19493;48.042;7.584;2023-12-04T02:24:27;-2.70;99.90
26505;DHT22;19493;48.042;7.584;2023-12-04T02:26:55;-2.70;99.90
26505;DHT22;19493;48.042;7.584;2023-12-04T02:29:33;-2.70;99.90
26505;DHT22;19493;48.042;7.584;2023-12-04T02:32:02;-2.60;99.90
26505;DHT22;19493;48.042;7.584;2023-12-04T02:34:30;-2.70;99.90
26505;DHT22;19493;48.042;7.584;2023-12-04T02:36:58;-2.70;99.90
26505;DHT22;19493;48.042;7.584;2023-12-04T02:39:25;-2.70;99.90
26505;DHT22;19493;48.042;7.584;2023-12-04T02:41:50;-2.60;99.90
26505;DHT22;19493;48.042;7.584;2023-12-04T02:44:16;-2.70;99.90
26505;DHT22;19493;48.042;7.584;2023-12-04T02:46:42;-2.60;99.90
26505;DHT22;19493;48.042;7.584;2023-12-04T02:49:08;-2.60;99.90
26505;DHT22;19493;48.042;7.584;2023-12-04T02:51:33;-2.60;99.90
26505;DHT22;19493;48.042;7.584;2023-12-04T02:53:59;-2.70;99.90
26505;DHT22;19493;48.042;7.584;2023-12-04T02:56:24;-2.70;99.90
26505;DHT22;19493;48.042;7.584;2023-12-04T02:58:50;-2.70;99.90
26505;DHT22;19493;48.042;7.584;2023-12-04T03:01:15;-2.70;99.90
26505;DHT22;19493;48.042;7.584;2023-12-04T03:03:41;-2.70;99.90
26505;DHT22;19493;48.042;7.584;2023-12-04T03:06:07;-2.70;99.90
26505;DHT22;19493;48.042;7.584;2023-12-04T03:08:35;-2.80;99.90
26505;DHT22;19493;48.042;7.584;2023-12-04T03:11:02;-2.80;99.90
26505;DHT22;19493;48.042;7.584;2023-12-04T03:13:29;-2.80;99.90
26505;DHT22;19493;48.042;7.584;2023-12-04T03:15:54;-2.80;99.90
26505;DHT22;19493;48.042;7.584;2023-12-04T03:18:20;-2.80;99.90
26505;DHT22;19493;48.042;7.584;2023-12-04T03:20:45;-2.80;99.90
26505;DHT22;19493;48.042;7.584;2023-12-04T03:23:11;-2.80;99.90
26505;DHT22;19493;48.042;7.584;2023-12-04T03:25:37;-2.90;99.90
26505;DHT22;19493;48.042;7.584;2023-12-04T03:28:02;-2.90;99.90
26505;DHT22;19493;48.042;7.584;2023-12-04T03:30:28;-2.90;99.90
26505;DHT22;19493;48.042;7.584;2023-12-04T03:32:54;-2.90;99.90
26505;DHT22;19493;48.042;7.584;2023-12-04T03:35:19;-2.90;99.90
26505;DHT22;19493;48.042;7.584;2023-12-04T03:37:45;-2.90;99.90
26505;DHT22;19493;48.042;7.584;2023-12-04T03:40:11;-2.90;99.90
26505;DHT22;19493;48.042;7.584;2023-12-04T03:42:36;-3.00;99.90
26505;DHT22;19493;48.042;7.584;2023-12-04T03:45:02;-3.00;99.90
26505;DHT22;19493;48.042;7.584;2023-12-04T03:47:28;-3.00;99.90
26505;DHT22;19493;48.042;7.584;2023-12-04T03:49:53;-3.00;99.90
26505;DHT22;19493;48.042;7.584;2023-12-04T03:52:19;-3.00;99.90
26505;DHT22;19493;48.042;7.584;2023-12-04T03:54:45;-3.00;99.90
26505;DHT22;19493;48.042;7.584;2023-12-04T03:57:10;-3.10;99.90
26505;DHT22;19493;48.042;7.584;2023-12-04T03:59:36;-3.10;99.90
26505;DHT22;19493;48.042;7.584;2023-12-04T04:02:01;-3.00;99.90
26505;DHT22;19493;48.042;7.584;2023-12-04T04:04:27;-3.10;99.90
26505;DHT22;19493;48.042;7.584;2023-12-04T04:06:53;-3.10;99.90
26505;DHT22;19493;48.042;7.584;2023-12-04T04:09:18;-3.00;99.90
26505;DHT22;19493;48.042;7.584;2023-12-04T04:11:45;-3.00;99.90
26505;DHT22;19493;48.042;7.584;2023-12-04T04:14:11;-3.00;99.90
26505;DHT22;19493;48.042;7.584;2023-12-04T04:16:36;-3.00;99.90
26505;DHT22;19493;48.042;7.584;2023-12-04T04:19:02;-2.90;99.90
26505;DHT22;19493;48.042;7.584;2023-12-04T04:21:28;-2.90;99.90
26505;DHT22;19493;48.042;7.584;2023-12-04T04:23:55;-2.90;99.90
26505;DHT22;19493;48.042;7.584;2023-12-04T04:26:20;-2.80;99.90
26505;DHT22;19493;48.042;7.584;2023-12-04T04:28:46;-2.80;99.90
26505;DHT22;19493;48.042;7.584;2023-12-04T04:31:11;-2.80;99.90
26505;DHT22;19493;48.042;7.584;2023-12-04T04:33:37;-2.80;99.90
26505;DHT22;19493;48.042;7.584;2023-12-04T04:36:03;-2.80;99.90
26505;DHT22;19493;48.042;7.584;2023-12-04T04:38:29;-2.70;99.90
26505;DHT22;19493;48.042;7.584;2023-12-04T04:40:54;-2.80;99.90
26505;DHT22;19493;48.042;7.584;2023-12-04T04:43:20;-2.70;99.90
26505;DHT22;19493;48.042;7.584;2023-12-04T04:45:46;-2.70;99.90
26505;DHT22;19493;48.042;7.584;2023-12-04T04:48:11;-2.70;99.90
26505;DHT22;19493;48.042;7.584;2023-12-04T04:50:37;-2.60;99.90
26505;DHT22;19493;48.042;7.584;2023-12-04T04:53:02;-2.60;99.90
26505;DHT22;19493;48.042;7.584;2023-12-04T04:55:28;-2.50;99.90
26505;DHT22;19493;48.042;7.584;2023-12-04T04:57:54;-2.50;99.90
26505;DHT22;19493;48.042;7.584;2023-12-04T05:00:20;-2.50;99.90
26505;DHT22;19493;48.042;7.584;2023-12-04T05:02:45;-2.50;99.90
26505;DHT22;19493;48.042;7.584;2023-12-04T05:05:11;-2.40;99.90
26505;DHT22;19493;48.042;7.584;2023-12-04T05:07:37;-2.40;99.90
26505;DHT22;19493;48.042;7.584;2023-12-04T05:10:03;-2.40;99.90
26505;DHT22;19493;48.042;7.584;2023-12-04T05:12:29;-2.40;99.90
26505;DHT22;19493;48.042;7.584;2023-12-04T05:14:55;-2.40;99.90
26505;DHT22;19493;48.042;7.584;2023-12-04T05:17:20;-2.40;99.90
26505;DHT22;19493;48.042;7.584;2023-12-04T05:19:46;-2.40;99.90
26505;DHT22;19493;48.042;7.584;2023-12-04T05:22:11;-2.40;99.90
26505;DHT22;19493;48.042;7.584;2023-12-04T05:24:37;-2.40;99.90
26505;DHT22;19493;48.042;7.584;2023-12-04T05:27:03;-2.30;99.90
26505;DHT22;19493;48.042;7.584;2023-12-04T05:29:29;-2.30;99.90
26505;DHT22;19493;48.042;7.584;2023-12-04T05:31:54;-2.30;99.90
26505;DHT22;19493;48.042;7.584;2023-12-04T05:34:20;-2.30;99.90
26505;DHT22;19493;48.042;7.584;2023-12-04T05:36:45;-2.30;99.90
26505;DHT22;19493;48.042;7.584;2023-12-04T05:39:11;-2.30;99.90
26505;DHT22;19493;48.042;7.584;2023-12-04T05:41:37;-2.30;99.90
26505;DHT22;19493;48.042;7.584;2023-12-04T05:44:03;-2.30;99.90
26505;DHT22;19493;48.042;7.584;2023-12-04T05:46:28;-2.20;99.90
26505;DHT22;19493;48.042;7.584;2023-12-04T05:48:54;-2.20;99.90
26505;DHT22;19493;48.042;7.584;2023-12-04T05:51:19;-2.20;99.90
26505;DHT22;19493;48.042;7.584;2023-12-04T05:53:45;-2.20;99.90
26505;DHT22;19493;48.042;7.584;2023-12-04T05:56:11;-2.20;99.90
26505;DHT22;19493;48.042;7.584;2023-12-04T05:58:36;-2.10;99.90
26505;DHT22;19493;48.042;7.584;2023-12-04T06:01:02;-2.10;99.90
26505;DHT22;19493;48.042;7.584;2023-12-04T06:03:28;-2.10;99.90
26505;DHT22;19493;48.042;7.584;2023-12-04T06:05:54;-2.10;99.90
26505;DHT22;19493;48.042;7.584;2023-12-04T06:08:19;-2.00;99.90
26505;DHT22;19493;48.042;7.584;2023-12-04T06:10:46;-2.00;99.90
26505;DHT22;19493;48.042;7.584;2023-12-04T06:13:11;-2.00;99.90
26505;DHT22;19493;48.042;7.584;2023-12-04T06:15:37;-2.00;99.90
26505;DHT22;19493;48.042;7.584;2023-12-04T06:18:03;-2.00;99.90
26505;DHT22;19493;48.042;7.584;2023-12-04T06:20:29;-2.00;99.90
26505;DHT22;19493;48.042;7.584;2023-12-04T06:22:55;-2.00;99.90
26505;DHT22;19493;48.042;7.584;2023-12-04T06:25:21;-2.00;99.90
26505;DHT22;19493;48.042;7.584;2023-12-04T06:27:47;-1.90;99.90
26505;DHT22;19493;48.042;7.584;2023-12-04T06:30:13;-1.90;99.90
26505;DHT22;19493;48.042;7.584;2023-12-04T06:32:39;-1.90;99.90
26505;DHT22;19493;48.042;7.584;2023-12-04T06:35:05;-1.90;99.90
26505;DHT22;19493;48.042;7.584;2023-12-04T06:37:31;-1.90;99.90
26505;DHT22;19493;48.042;7.584;2023-12-04T06:39:59;-1.90;99.90
26505;DHT22;19493;48.042;7.584;2023-12-04T06:42:25;-1.90;99.90
26505;DHT22;19493;48.042;7.584;2023-12-04T06:44:51;-1.80;99.90
26505;DHT22;19493;48.042;7.584;2023-12-04T06:47:22;-1.80;99.90
26505;DHT22;19493;48.042;7.584;2023-12-04T06:49:48;-1.80;99.90
26505;DHT22;19493;48.042;7.584;2023-12-04T06:52:13;-1.80;99.90
26505;DHT22;19493;48.042;7.584;2023-12-04T06:54:39;-1.70;99.90
26505;DHT22;19493;48.042;7.584;2023-12-04T06:57:05;-1.80;99.90
26505;DHT22;19493;48.042;7.584;2023-12-04T06:59:30;-1.70;99.90
26505;DHT22;19493;48.042;7.584;2023-12-04T07:01:56;-1.70;99.90
26505;DHT22;19493;48.042;7.584;2023-12-04T07:04:21;-1.70;99.90
26505;DHT22;19493;48.042;7.584;2023-12-04T07:06:47;-1.70;99.90
26505;DHT22;19493;48.042;7.584;2023-12-04T07:09:14;-1.80;99.90
26505;DHT22;19493;48.042;7.584;2023-12-04T07:11:40;-1.80;99.90
26505;DHT22;19493;48.042;7.584;2023-12-04T07:14:05;-1.80;99.90
26505;DHT22;19493;48.042;7.584;2023-12-04T07:16:39;-1.80;99.90
26505;DHT22;19493;48.042;7.584;2023-12-04T07:19:05;-1.70;99.90
26505;DHT22;19493;48.042;7.584;2023-12-04T07:21:30;-1.70;99.90
26505;DHT22;19493;48.042;7.584;2023-12-04T07:23:56;-1.70;99.90
26505;DHT22;19493;48.042;7.584;2023-12-04T07:26:21;-1.80;99.90
26505;DHT22;19493;48.042;7.584;2023-12-04T07:28:47;-1.80;99.90
26505;DHT22;19493;48.042;7.584;2023-12-04T07:31:13;-1.80;99.90
26505;DHT22;19493;48.042;7.584;2023-12-04T07:33:38;-1.80;99.90
26505;DHT22;19493;48.042;7.584;2023-12-04T07:36:04;-1.80;99.90
26505;DHT22;19493;48.042;7.584;2023-12-04T07:38:30;-1.80;99.90
26505;DHT22;19493;48.042;7.584;2023-12-04T07:40:55;-1.70;99.90
26505;DHT22;19493;48.042;7.584;2023-12-04T07:43:21;-1.70;99.90
26505;DHT22;19493;48.042;7.584;2023-12-04T07:45:46;-1.60;99.90
26505;DHT22;19493;48.042;7.584;2023-12-04T07:48:12;-1.50;99.90
26505;DHT22;19493;48.042;7.584;2023-12-04T07:50:38;-1.50;99.90
26505;DHT22;19493;48.042;7.584;2023-12-04T07:53:04;-1.40;99.90
26505;DHT22;19493;48.042;7.584;2023-12-04T07:55:30;-1.40;99.90
26505;DHT22;19493;48.042;7.584;2023-12-04T07:57:56;-1.30;99.90
26505;DHT22;19493;48.042;7.584;2023-12-04T08:00:22;-1.30;99.90
26505;DHT22;19493;48.042;7.584;2023-12-04T08:02:48;-1.30;99.90
26505;DHT22;19493;48.042;7.584;2023-12-04T08:05:14;-1.30;99.90
26505;DHT22;19493;48.042;7.584;2023-12-04T08:07:40;-1.20;99.90
26505;DHT22;19493;48.042;7.584;2023-12-04T08:10:06;-1.20;99.90
26505;DHT22;19493;48.042;7.584;2023-12-04T08:12:32;-1.20;99.90
26505;DHT22;19493;48.042;7.584;2023-12-04T08:14:59;-1.20;99.90
26505;DHT22;19493;48.042;7.584;2023-12-04T08:17:24;-1.10;99.90
26505;DHT22;19493;48.042;7.584;2023-12-04T08:19:50;-1.00;99.90
26505;DHT22;19493;48.042;7.584;2023-12-04T08:22:15;-1.00;99.90
26505;DHT22;19493;48.042;7.584;2023-12-04T08:24:41;-0.90;99.90
26505;DHT22;19493;48.042;7.584;2023-12-04T08:27:07;-0.80;99.90
26505;DHT22;19493;48.042;7.584;2023-12-04T08:29:33;-0.80;99.90
26505;DHT22;19493;48.042;7.584;2023-12-04T08:31:58;-0.70;99.90
26505;DHT22;19493;48.042;7.584;2023-12-04T08:34:24;-0.70;99.90
26505;DHT22;19493;48.042;7.584;2023-12-04T08:36:49;-0.70;99.90
26505;DHT22;19493;48.042;7.584;2023-12-04T08:39:15;-0.70;99.90
26505;DHT22;19493;48.042;7.584;2023-12-04T08:41:41;-0.70;99.90
26505;DHT22;19493;48.042;7.584;2023-12-04T08:44:06;-0.70;99.90
26505;DHT22;19493;48.042;7.584;2023-12-04T08:46:32;-0.60;99.90
26505;DHT22;19493;48.042;7.584;2023-12-04T08:48:57;-0.60;99.90
26505;DHT22;19493;48.042;7.584;2023-12-04T08:51:23;-0.70;99.90
26505;DHT22;19493;48.042;7.584;2023-12-04T08:53:49;-0.70;99.90
26505;DHT22;19493;48.042;7.584;2023-12-04T08:56:15;-0.60;99.90
26505;DHT22;19493;48.042;7.584;2023-12-04T08:58:40;-0.60;99.90
26505;DHT22;19493;48.042;7.584;2023-12-04T09:01:06;-0.50;99.90
26505;DHT22;19493;48.042;7.584;2023-12-04T09:03:32;-0.40;99.90
26505;DHT22;19493;48.042;7.584;2023-12-04T09:05:57;-0.30;99.90
26505;DHT22;19493;48.042;7.584;2023-12-04T09:08:23;-0.30;99.90
26505;DHT22;19493;48.042;7.584;2023-12-04T09:10:51;-0.30;99.90
26505;DHT22;19493;48.042;7.584;2023-12-04T09:13:16;-0.20;99.90
26505;DHT22;19493;48.042;7.584;2023-12-04T09:15:42;-0.20;99.90
26505;DHT22;19493;48.042;7.584;2023-12-04T09:18:07;-0.10;99.90
26505;DHT22;19493;48.042;7.584;2023-12-04T09:20:34;-0.10;99.90
26505;DHT22;19493;48.042;7.584;2023-12-04T09:22:59;0.00;99.90
26505;DHT22;19493;48.042;7.584;2023-12-04T09:25:25;-0.10;99.90
26505;DHT22;19493;48.042;7.584;2023-12-04T09:27:51;-0.20;99.90
26505;DHT22;19493;48.042;7.584;2023-12-04T09:30:17;-0.10;99.90
26505;DHT22;19493;48.042;7.584;2023-12-04T09:32:43;-0.10;99.90
26505;DHT22;19493;48.042;7.584;2023-12-04T09:35:09;-0.10;99.90
26505;DHT22;19493;48.042;7.584;2023-12-04T09:37:35;-0.10;99.90
26505;DHT22;19493;48.042;7.584;2023-12-04T09:40:00;-0.10;99.90
26505;DHT22;19493;48.042;7.584;2023-12-04T09:42:26;0.00;99.90
26505;DHT22;19493;48.042;7.584;2023-12-04T09:44:53;0.20;99.90
26505;DHT22;19493;48.042;7.584;2023-12-04T09:47:20;0.40;99.90
26505;DHT22;19493;48.042;7.584;2023-12-04T09:49:47;0.50;99.90
26505;DHT22;19493;48.042;7.584;2023-12-04T09:52:14;0.60;99.90
26505;DHT22;19493;48.042;7.584;2023-12-04T09:54:40;0.60;99.90
26505;DHT22;19493;48.042;7.584;2023-12-04T09:57:06;0.60;99.90
26505;DHT22;19493;48.042;7.584;2023-12-04T09:59:32;0.70;99.90
26505;DHT22;19493;48.042;7.584;2023-12-04T10:01:58;0.70;99.90
26505;DHT22;19493;48.042;7.584;2023-12-04T10:04:24;0.70;99.90
26505;DHT22;19493;48.042;7.584;2023-12-04T10:06:51;0.80;99.90
26505;DHT22;19493;48.042;7.584;2023-12-04T10:09:18;0.80;99.90
26505;DHT22;19493;48.042;7.584;2023-12-04T10:11:47;0.80;99.90
26505;DHT22;19493;48.042;7.584;2023-12-04T10:14:15;0.70;99.90
26505;DHT22;19493;48.042;7.584;2023-12-04T10:16:42;0.60;99.90
26505;DHT22;19493;48.042;7.584;2023-12-04T10:19:21;0.40;99.90
26505;DHT22;19493;48.042;7.584;2023-12-04T10:21:55;0.30;99.90
26505;DHT22;19493;48.042;7.584;2023-12-04T10:24:41;0.20;99.90
26505;DHT22;19493;48.042;7.584;2023-12-04T10:27:09;0.10;99.90
26505;DHT22;19493;48.042;7.584;2023-12-04T10:29:46;0.00;99.90
26505;DHT22;19493;48.042;7.584;2023-12-04T10:32:13;0.00;99.90
26505;DHT22;19493;48.042;7.584;2023-12-04T10:34:41;0.00;99.90
26505;DHT22;19493;48.042;7.584;2023-12-04T10:37:08;0.10;99.90
26505;DHT22;19493;48.042;7.584;2023-12-04T10:39:48;0.10;99.90
26505;DHT22;19493;48.042;7.584;2023-12-04T10:42:28;0.10;99.90
26505;DHT22;19493;48.042;7.584;2023-12-04T10:44:56;0.20;99.90
26505;DHT22;19493;48.042;7.584;2023-12-04T10:47:22;0.30;99.90
26505;DHT22;19493;48.042;7.584;2023-12-04T10:49:49;0.40;99.90
26505;DHT22;19493;48.042;7.584;2023-12-04T10:52:16;0.40;99.90
26505;DHT22;19493;48.042;7.584;2023-12-04T10:54:47;0.50;99.90
26505;DHT22;19493;48.042;7.584;2023-12-04T10:57:25;0.70;99.90
26505;DHT22;19493;48.042;7.584;2023-12-04T10:59:54;0.90;99.90
26505;DHT22;19493;48.042;7.584;2023-12-04T11:02:21;1.20;99.90
26505;DHT22;19493;48.042;7.584;2023-12-04T11:04:55;1.40;99.90
26505;DHT22;19493;48.042;7.584;2023-12-04T11:07:24;1.50;99.90
26505;DHT22;19493;48.042;7.584;2023-12-04T11:09:51;1.60;99.90
26505;DHT22;19493;48.042;7.584;2023-12-04T11:12:21;1.50;99.90
26505;DHT22;19493;48.042;7.584;2023-12-04T11:14:55;1.40;99.90
26505;DHT22;19493;48.042;7.584;2023-12-04T11:17:22;1.30;99.90
26505;DHT22;19493;48.042;7.584;2023-12-04T11:19:54;1.30;99.90
26505;DHT22;19493;48.042;7.584;2023-12-04T11:22:21;1.20;99.90
26505;DHT22;19493;48.042;7.584;2023-12-04T11:24:47;1.10;99.90
26505;DHT22;19493;48.042;7.584;2023-12-04T11:27:16;1.00;99.90
26505;DHT22;19493;48.042;7.584;2023-12-04T11:29:42;1.00;99.90
26505;DHT22;19493;48.042;7.584;2023-12-04T11:32:14;1.10;99.90
26505;DHT22;19493;48.042;7.584;2023-12-04T11:34:48;1.20;99.90
26505;DHT22;19493;48.042;7.584;2023-12-04T11:37:14;1.20;99.90
26505;DHT22;19493;48.042;7.584;2023-12-04T11:39:39;1.10;99.90
26505;DHT22;19493;48.042;7.584;2023-12-04T11:42:06;1.30;99.90
26505;DHT22;19493;48.042;7.584;2023-12-04T11:44:32;1.40;99.90
26505;DHT22;19493;48.042;7.584;2023-12-04T11:47:05;1.50;99.90
26505;DHT22;19493;48.042;7.584;2023-12-04T11:49:32;1.80;99.90
26505;DHT22;19493;48.042;7.584;2023-12-04T11:51:59;2.00;99.90
26505;DHT22;19493;48.042;7.584;2023-12-04T11:54:26;2.10;99.90
26505;DHT22;19493;48.042;7.584;2023-12-04T11:59:37;2.20;99.90
26505;DHT22;19493;48.042;7.584;2023-12-04T12:02:07;2.30;99.90
26505;DHT22;19493;48.042;7.584;2023-12-04T12:04:33;2.30;99.90
26505;DHT22;19493;48.042;7.584;2023-12-04T12:09:28;2.20;99.90
26505;DHT22;19493;48.042;7.584;2023-12-04T12:11:54;2.10;99.90
26505;DHT22;19493;48.042;7.584;2023-12-04T12:14:23;2.10;99.90
26505;DHT22;19493;48.042;7.584;2023-12-04T12:16:49;2.00;99.90
26505;DHT22;19493;48.042;7.584;2023-12-04T12:19:14;2.00;99.90
26505;DHT22;19493;48.042;7.584;2023-12-04T12:21:40;1.90;99.90
26505;DHT22;19493;48.042;7.584;2023-12-04T12:24:06;1.80;99.90
26505;DHT22;19493;48.042;7.584;2023-12-04T12:26:33;1.70;99.90
26505;DHT22;19493;48.042;7.584;2023-12-04T12:28:58;1.70;99.90
26505;DHT22;19493;48.042;7.584;2023-12-04T12:31:24;1.70;99.90
26505;DHT22;19493;48.042;7.584;2023-12-04T12:33:49;1.80;99.90
26505;DHT22;19493;48.042;7.584;2023-12-04T12:36:16;1.90;99.90
26505;DHT22;19493;48.042;7.584;2023-12-04T12:38:46;2.00;99.90
26505;DHT22;19493;48.042;7.584;2023-12-04T12:41:16;2.10;99.90
26505;DHT22;19493;48.042;7.584;2023-12-04T12:43:43;2.10;99.90
26505;DHT22;19493;48.042;7.584;2023-12-04T12:46:10;2.10;99.90
26505;DHT22;19493;48.042;7.584;2023-12-04T12:48:35;2.10;99.90
26505;DHT22;19493;48.042;7.584;2023-12-04T12:51:02;2.10;99.90
26505;DHT22;19493;48.042;7.584;2023-12-04T12:53:28;2.10;99.90
26505;DHT22;19493;48.042;7.584;2023-12-04T12:55:57;2.00;99.90
26505;DHT22;19493;48.042;7.584;2023-12-04T12:58:24;1.90;99.90
26505;DHT22;19493;48.042;7.584;2023-12-04T13:00:50;1.80;99.90
26505;DHT22;19493;48.042;7.584;2023-12-04T13:03:16;1.80;99.90
26505;DHT22;19493;48.042;7.584;2023-12-04T13:05:42;1.80;99.90
26505;DHT22;19493;48.042;7.584;2023-12-04T13:08:08;1.90;99.90
26505;DHT22;19493;48.042;7.584;2023-12-04T13:10:33;2.00;99.90
26505;DHT22;19493;48.042;7.584;2023-12-04T13:12:59;2.10;99.90
26505;DHT22;19493;48.042;7.584;2023-12-04T13:15:26;2.20;99.90
26505;DHT22;19493;48.042;7.584;2023-12-04T13:17:51;2.40;99.90
26505;DHT22;19493;48.042;7.584;2023-12-04T13:20:17;2.60;99.90
26505;DHT22;19493;48.042;7.584;2023-12-04T13:22:43;2.70;99.90
26505;DHT22;19493;48.042;7.584;2023-12-04T13:25:09;2.80;99.90
26505;DHT22;19493;48.042;7.584;2023-12-04T13:27:38;2.70;99.90
26505;DHT22;19493;48.042;7.584;2023-12-04T13:30:07;2.60;99.90
26505;DHT22;19493;48.042;7.584;2023-12-04T13:32:38;2.60;99.90
26505;DHT22;19493;48.042;7.584;2023-12-04T13:35:04;2.40;99.90
26505;DHT22;19493;48.042;7.584;2023-12-04T13:37:31;2.40;99.90
26505;DHT22;19493;48.042;7.584;2023-12-04T13:39:57;2.40;99.90
26505;DHT22;19493;48.042;7.584;2023-12-04T13:42:34;2.40;99.90
26505;DHT22;19493;48.042;7.584;2023-12-04T13:45:19;2.60;99.90
26505;DHT22;19493;48.042;7.584;2023-12-04T13:47:48;3.10;99.90
26505;DHT22;19493;48.042;7.584;2023-12-04T13:50:14;3.50;99.90
26505;DHT22;19493;48.042;7.584;2023-12-04T13:52:40;3.60;99.90
26505;DHT22;19493;48.042;7.584;2023-12-04T13:55:09;3.60;99.90
26505;DHT22;19493;48.042;7.584;2023-12-04T13:58:01;3.60;99.90
26505;DHT22;19493;48.042;7.584;2023-12-04T14:00:30;3.60;99.90
26505;DHT22;19493;48.042;7.584;2023-12-04T14:02:55;3.40;99.90
26505;DHT22;19493;48.042;7.584;2023-12-04T14:05:31;3.20;99.90
26505;DHT22;19493;48.042;7.584;2023-12-04T14:07:57;3.10;99.90
26505;DHT22;19493;48.042;7.584;2023-12-04T14:10:25;3.00;99.90
26505;DHT22;19493;48.042;7.584;2023-12-04T14:12:55;3.00;99.90
26505;DHT22;19493;48.042;7.584;2023-12-04T14:15:21;3.00;99.90
26505;DHT22;19493;48.042;7.584;2023-12-04T14:17:46;3.00;99.90
26505;DHT22;19493;48.042;7.584;2023-12-04T14:20:12;3.00;99.90
26505;DHT22;19493;48.042;7.584;2023-12-04T14:22:45;3.00;99.90
26505;DHT22;19493;48.042;7.584;2023-12-04T14:25:13;3.00;99.90
26505;DHT22;19493;48.042;7.584;2023-12-04T14:27:39;2.90;99.90
26505;DHT22;19493;48.042;7.584;2023-12-04T14:30:09;2.90;99.90
26505;DHT22;19493;48.042;7.584;2023-12-04T14:32:35;2.80;99.90
26505;DHT22;19493;48.042;7.584;2023-12-04T14:35:02;2.90;99.90
26505;DHT22;19493;48.042;7.584;2023-12-04T14:37:28;2.80;99.90
26505;DHT22;19493;48.042;7.584;2023-12-04T14:39:54;2.80;99.90
26505;DHT22;19493;48.042;7.584;2023-12-04T14:42:19;2.70;99.90
26505;DHT22;19493;48.042;7.584;2023-12-04T14:44:45;2.70;99.90
26505;DHT22;19493;48.042;7.584;2023-12-04T14:47:10;2.60;99.90
26505;DHT22;19493;48.042;7.584;2023-12-04T14:49:37;2.60;99.90
26505;DHT22;19493;48.042;7.584;2023-12-04T14:52:03;2.60;99.90
26505;DHT22;19493;48.042;7.584;2023-12-04T14:54:31;2.60;99.90
26505;DHT22;19493;48.042;7.584;2023-12-04T14:57:20;2.60;99.90
26505;DHT22;19493;48.042;7.584;2023-12-04T15:00:15;2.60;99.90
26505;DHT22;19493;48.042;7.584;2023-12-04T15:03:13;2.60;99.90
26505;DHT22;19493;48.042;7.584;2023-12-04T15:05:57;2.60;99.90
26505;DHT22;19493;48.042;7.584;2023-12-04T15:09:00;2.60;99.90
26505;DHT22;19493;48.042;7.584;2023-12-04T15:11:44;2.60;99.90
26505;DHT22;19493;48.042;7.584;2023-12-04T15:14:40;2.50;99.90
26505;DHT22;19493;48.042;7.584;2023-12-04T15:17:21;2.50;99.90
26505;DHT22;19493;48.042;7.584;2023-12-04T15:20:10;2.40;99.90
26505;DHT22;19493;48.042;7.584;2023-12-04T15:22:36;2.40;99.90
26505;DHT22;19493;48.042;7.584;2023-12-04T15:25:03;2.30;99.90
26505;DHT22;19493;48.042;7.584;2023-12-04T15:27:29;2.20;99.90
26505;DHT22;19493;48.042;7.584;2023-12-04T15:29:55;2.10;99.90
26505;DHT22;19493;48.042;7.584;2023-12-04T15:32:21;2.00;99.90
26505;DHT22;19493;48.042;7.584;2023-12-04T15:34:46;1.90;99.90
26505;DHT22;19493;48.042;7.584;2023-12-04T15:37:12;1.90;99.90
26505;DHT22;19493;48.042;7.584;2023-12-04T15:39:38;1.80;99.90
26505;DHT22;19493;48.042;7.584;2023-12-04T15:42:05;1.80;99.90